createdAt,value
2022-08-19T00:00:06.581Z,22.60
2022-08-19T00:02:34.581Z,22.60
2022-08-19T00:05:02.703Z,22.60
2022-08-19T00:07:30.692Z,22.60
2022-08-19T00:09:58.599Z,22.60
2022-08-19T00:12:26.603Z,22.60
2022-08-19T00:14:56.077Z,22.60
2022-08-19T00:17:24.142Z,22.60
2022-08-19T00:19:52.133Z,22.70
2022-08-19T00:22:20.075Z,22.60
2022-08-19T00:24:49.641Z,22.70
2022-08-19T00:27:26.268Z,22.70
2022-08-19T00:29:56.228Z,22.70
2022-08-19T00:32:24.511Z,22.70
2022-08-19T00:34:55.335Z,22.70
2022-08-19T00:37:24.336Z,22.70
2022-08-19T00:39:52.981Z,22.60
2022-08-19T00:42:23.010Z,22.70
2022-08-19T00:44:52.307Z,22.60
2022-08-19T00:47:22.447Z,22.60
2022-08-19T00:49:53.537Z,22.60
2022-08-19T00:52:24.840Z,22.60
2022-08-19T00:54:54.535Z,22.60
2022-08-19T00:57:36.705Z,22.60
2022-08-19T01:00:08.014Z,22.60
2022-08-19T01:02:37.344Z,22.60
2022-08-19T01:05:10.916Z,22.60
2022-08-19T01:07:41.176Z,22.60
2022-08-19T01:10:12.854Z,22.50
2022-08-19T01:12:41.540Z,22.60
2022-08-19T01:15:13.030Z,22.50
2022-08-19T01:17:43.804Z,22.50
2022-08-19T01:20:15.955Z,22.40
2022-08-19T01:22:48.747Z,22.40
2022-08-19T01:25:18.323Z,22.30
2022-08-19T01:27:49.451Z,22.30
2022-08-19T01:30:24.930Z,22.30
2022-08-19T01:32:53.691Z,22.20
2022-08-19T01:35:24.337Z,22.20
2022-08-19T01:37:56.048Z,22.20
2022-08-19T01:40:26.983Z,22.20
2022-08-19T01:42:55.942Z,22.20
2022-08-19T01:45:26.644Z,22.20
2022-08-19T01:48:02.288Z,22.20
2022-08-19T01:50:32.555Z,22.20
2022-08-19T01:53:06.618Z,22.20
2022-08-19T01:55:41.305Z,22.20
2022-08-19T01:58:13.425Z,22.20
2022-08-19T02:00:42.267Z,22.20
2022-08-19T02:03:12.126Z,22.20
2022-08-19T02:05:40.551Z,22.20
2022-08-19T02:08:10.560Z,22.20
2022-08-19T02:10:42.445Z,22.10
2022-08-19T02:13:10.700Z,22.10
2022-08-19T02:15:38.907Z,22.10
2022-08-19T02:18:08.300Z,22.10
2022-08-19T02:20:36.557Z,22.10
2022-08-19T02:23:04.643Z,22.00
2022-08-19T02:25:34.003Z,22.00
2022-08-19T02:28:01.936Z,22.00
2022-08-19T02:30:30.244Z,22.00
2022-08-19T02:32:59.014Z,22.00
2022-08-19T02:35:27.603Z,22.00
2022-08-19T02:38:12.945Z,21.90
2022-08-19T02:40:42.260Z,21.90
2022-08-19T02:43:11.620Z,21.90
2022-08-19T02:45:41.705Z,21.80
2022-08-19T02:48:21.197Z,21.80
2022-08-19T02:50:53.622Z,21.80
2022-08-19T02:53:23.035Z,21.80
2022-08-19T02:55:52.709Z,21.80
2022-08-19T02:58:23.124Z,21.80
2022-08-19T03:00:55.710Z,21.70
2022-08-19T03:03:24.477Z,21.70
2022-08-19T03:05:56.934Z,21.70
2022-08-19T03:08:26.391Z,21.70
2022-08-19T03:10:55.982Z,21.60
2022-08-19T03:13:24.193Z,21.60
2022-08-19T03:15:52.150Z,21.60
2022-08-19T03:18:20.182Z,21.50
2022-08-19T03:20:55.501Z,21.50
2022-08-19T03:23:24.101Z,21.50
2022-08-19T03:26:03.903Z,21.50
2022-08-19T03:28:51.000Z,21.50
2022-08-19T03:31:44.084Z,21.40
2022-08-19T03:34:20.758Z,21.40
2022-08-19T03:36:49.536Z,21.40
2022-08-19T03:39:18.020Z,21.40
2022-08-19T03:41:48.806Z,21.40
2022-08-19T03:44:23.655Z,21.40
2022-08-19T03:46:54.874Z,21.40
2022-08-19T03:49:28.205Z,21.40
2022-08-19T03:51:58.020Z,21.40
2022-08-19T03:54:28.542Z,21.40
2022-08-19T03:56:58.692Z,21.40
2022-08-19T03:59:30.169Z,21.40
2022-08-19T04:02:00.157Z,21.40
2022-08-19T04:04:29.215Z,21.40
2022-08-19T04:06:58.136Z,21.40
2022-08-19T04:09:26.667Z,21.40
2022-08-19T04:11:58.123Z,21.40
2022-08-19T04:14:30.994Z,21.40
2022-08-19T04:17:00.153Z,21.40
2022-08-19T04:19:29.148Z,21.40
2022-08-19T04:21:57.342Z,21.40
2022-08-19T04:24:25.740Z,21.40
2022-08-19T04:26:54.317Z,21.40
2022-08-19T04:29:25.982Z,21.40
2022-08-19T04:31:56.990Z,21.40
2022-08-19T04:34:26.739Z,21.40
2022-08-19T04:36:59.098Z,21.50
2022-08-19T04:39:49.647Z,21.40
2022-08-19T04:42:36.497Z,21.50
2022-08-19T04:45:05.295Z,21.50
2022-08-19T04:47:47.890Z,21.50
2022-08-19T04:50:23.529Z,21.50
2022-08-19T04:52:53.416Z,21.50
2022-08-19T04:55:21.541Z,21.50
2022-08-19T04:57:49.803Z,21.50
2022-08-19T05:00:17.914Z,21.50
2022-08-19T05:02:47.290Z,21.50
2022-08-19T05:05:15.325Z,21.50
2022-08-19T05:07:43.293Z,21.40
2022-08-19T05:10:12.509Z,21.40
2022-08-19T05:12:40.690Z,21.40
2022-08-19T05:15:09.908Z,21.40
2022-08-19T05:17:39.221Z,21.40
2022-08-19T05:20:36.547Z,21.40
2022-08-19T05:23:09.231Z,21.40
2022-08-19T05:25:41.957Z,21.40
2022-08-19T05:28:10.385Z,21.40
2022-08-19T05:30:47.212Z,21.40
2022-08-19T05:33:15.612Z,21.40
2022-08-19T05:35:45.057Z,21.40
2022-08-19T05:38:13.652Z,21.40
2022-08-19T05:40:42.386Z,21.40
2022-08-19T05:43:11.007Z,21.40
2022-08-19T05:45:42.890Z,21.40
2022-08-19T05:48:12.272Z,21.30
2022-08-19T05:50:40.804Z,21.40
2022-08-19T05:53:10.728Z,21.40
2022-08-19T05:55:40.530Z,21.40
2022-08-19T05:58:08.979Z,21.40
2022-08-19T06:00:37.144Z,21.40
2022-08-19T06:03:12.600Z,21.40
2022-08-19T06:05:49.545Z,21.40
2022-08-19T06:08:34.812Z,21.50
2022-08-19T06:11:18.192Z,21.50
2022-08-19T06:13:48.507Z,21.50
2022-08-19T06:16:20.557Z,21.60
2022-08-19T06:18:49.383Z,21.60
2022-08-19T06:21:17.351Z,21.60
2022-08-19T06:23:48.163Z,21.60
2022-08-19T06:26:17.553Z,21.70
2022-08-19T06:28:47.552Z,21.70
2022-08-19T06:31:17.040Z,21.70
2022-08-19T06:33:45.762Z,21.70
2022-08-19T06:36:20.113Z,21.70
2022-08-19T06:38:49.537Z,21.70
2022-08-19T06:41:17.533Z,21.80
2022-08-19T06:43:45.492Z,21.80
2022-08-19T06:46:15.409Z,21.80
2022-08-19T06:48:45.301Z,21.80
2022-08-19T06:51:16.608Z,21.80
2022-08-19T06:56:25.859Z,21.80
2022-08-19T06:58:53.933Z,21.70
2022-08-19T07:01:22.554Z,21.70
2022-08-19T07:03:50.787Z,21.70
2022-08-19T07:09:14.919Z,21.60
2022-08-19T07:11:47.946Z,21.60
2022-08-19T07:14:19.868Z,21.60
2022-08-19T07:16:49.674Z,21.60
2022-08-19T07:19:18.751Z,21.60
2022-08-19T07:21:49.459Z,21.60
2022-08-19T07:24:20.314Z,21.50
2022-08-19T07:26:51.942Z,21.50
2022-08-19T07:29:24.096Z,21.50
2022-08-19T07:31:56.938Z,21.50
2022-08-19T07:34:25.586Z,21.50
2022-08-19T07:36:54.713Z,21.50
2022-08-19T07:39:26.810Z,21.50
2022-08-19T07:41:56.168Z,21.60
2022-08-19T07:44:25.041Z,21.50
2022-08-19T07:46:56.564Z,21.50
2022-08-19T07:49:25.881Z,21.50
2022-08-19T07:51:56.715Z,21.50
2022-08-19T07:54:27.995Z,21.50
2022-08-19T07:56:56.373Z,21.50
2022-08-19T07:59:24.436Z,21.50
2022-08-19T08:01:53.518Z,21.50
2022-08-19T08:04:39.562Z,21.50
2022-08-19T08:07:31.674Z,21.60
2022-08-19T08:10:03.353Z,21.60
2022-08-19T08:12:35.449Z,21.60
2022-08-19T08:15:12.511Z,21.60
2022-08-19T08:17:49.624Z,21.60
2022-08-19T08:20:20.572Z,21.60
2022-08-19T08:23:07.110Z,21.60
2022-08-19T08:25:38.336Z,21.60
2022-08-19T08:28:09.131Z,21.70
2022-08-19T08:30:42.429Z,21.70
2022-08-19T08:33:13.528Z,21.70
2022-08-19T08:35:43.380Z,21.70
2022-08-19T08:38:11.402Z,21.80
2022-08-19T08:40:46.530Z,21.70
2022-08-19T08:43:34.378Z,21.80
2022-08-19T08:46:05.841Z,21.80
2022-08-19T08:48:40.887Z,21.80
2022-08-19T08:51:13.325Z,21.80
2022-08-19T08:53:42.862Z,21.80
2022-08-19T08:56:16.905Z,21.80
2022-08-19T08:58:54.751Z,21.80
2022-08-19T09:01:23.432Z,21.80
2022-08-19T09:03:52.340Z,21.80
2022-08-19T09:06:40.983Z,21.80
2022-08-19T09:09:18.692Z,21.80
2022-08-19T09:12:12.029Z,21.80
2022-08-19T09:14:50.630Z,21.80
2022-08-19T09:17:20.189Z,21.80
2022-08-19T09:19:54.940Z,21.80
2022-08-19T09:22:25.447Z,21.80
2022-08-19T09:24:54.345Z,21.80
2022-08-19T09:27:41.706Z,21.80
2022-08-19T09:30:13.730Z,21.70
2022-08-19T09:32:43.613Z,21.80
2022-08-19T09:35:12.018Z,21.80
2022-08-19T09:37:40.351Z,21.80
2022-08-19T09:40:11.965Z,21.80
2022-08-19T09:42:50.124Z,21.70
2022-08-19T09:45:23.079Z,21.70
2022-08-19T09:47:54.159Z,21.80
2022-08-19T09:50:24.251Z,21.80
2022-08-19T09:52:54.163Z,21.70
2022-08-19T09:55:31.223Z,21.70
2022-08-19T09:58:02.323Z,21.80
2022-08-19T10:00:31.142Z,21.70
2022-08-19T10:02:59.165Z,21.80
2022-08-19T10:05:44.385Z,21.80
2022-08-19T10:08:13.946Z,21.80
2022-08-19T10:10:44.136Z,21.80
2022-08-19T10:13:17.796Z,21.80
2022-08-19T10:15:48.075Z,21.90
2022-08-19T10:18:19.079Z,21.90
2022-08-19T10:20:51.761Z,21.90
2022-08-19T10:23:21.437Z,22.00
2022-08-19T10:25:50.594Z,22.00
2022-08-19T10:28:19.977Z,22.00
2022-08-19T10:30:48.751Z,22.10
2022-08-19T10:33:27.079Z,22.10
2022-08-19T10:36:07.648Z,22.10
2022-08-19T10:38:36.466Z,22.10
2022-08-19T10:41:13.398Z,22.20
2022-08-19T10:43:43.410Z,22.10
2022-08-19T10:46:16.725Z,22.10
2022-08-19T10:48:45.781Z,22.10
2022-08-19T10:51:31.440Z,22.10
2022-08-19T10:54:00.832Z,22.10
2022-08-19T10:56:47.412Z,22.10
2022-08-19T10:59:18.527Z,22.10
2022-08-19T11:01:47.982Z,22.10
2022-08-19T11:04:20.566Z,22.10
2022-08-19T11:06:50.041Z,22.10
2022-08-19T11:09:21.706Z,22.10
2022-08-19T11:11:49.669Z,22.10
2022-08-19T11:14:21.365Z,22.10
2022-08-19T11:16:50.158Z,22.00
2022-08-19T11:19:20.015Z,22.00
2022-08-19T11:21:50.371Z,22.00
2022-08-19T11:24:21.064Z,21.90
2022-08-19T11:26:50.443Z,21.90
2022-08-19T11:29:22.346Z,21.90
2022-08-19T11:31:51.753Z,21.90
2022-08-19T11:34:22.564Z,21.80
2022-08-19T11:36:52.415Z,21.80
2022-08-19T11:39:22.157Z,21.80
2022-08-19T11:41:50.631Z,21.80
2022-08-19T11:44:20.374Z,21.70
2022-08-19T11:46:48.577Z,21.80
2022-08-19T11:49:19.662Z,21.80
2022-08-19T11:51:48.118Z,21.80
2022-08-19T11:54:16.938Z,21.80
2022-08-19T11:56:46.542Z,21.80
2022-08-19T11:59:15.520Z,21.80
2022-08-19T12:01:44.965Z,21.80
2022-08-19T12:04:13.510Z,21.80
2022-08-19T12:06:42.820Z,21.80
2022-08-19T12:09:12.138Z,21.80
2022-08-19T12:11:41.601Z,21.80
2022-08-19T12:14:15.012Z,21.80
2022-08-19T12:16:50.922Z,21.80
2022-08-19T12:19:21.795Z,21.80
2022-08-19T12:21:51.803Z,21.90
2022-08-19T12:24:24.021Z,21.90
2022-08-19T12:26:53.510Z,21.90
2022-08-19T12:29:24.042Z,21.80
2022-08-19T12:31:53.837Z,21.80
2022-08-19T12:34:22.272Z,21.80
2022-08-19T12:36:51.146Z,21.70
2022-08-19T12:39:19.182Z,21.80
2022-08-19T12:41:54.522Z,21.70
2022-08-19T12:44:28.853Z,21.70
2022-08-19T12:46:58.613Z,21.70
2022-08-19T12:49:52.514Z,21.60
2022-08-19T12:52:16.710Z,21.60
2022-08-19T12:54:53.939Z,21.60
2022-08-19T12:57:24.433Z,21.60
2022-08-19T13:00:04.673Z,21.60
2022-08-19T13:02:38.681Z,21.60
2022-08-19T13:05:09.602Z,21.60
2022-08-19T13:07:38.187Z,21.60
2022-08-19T13:10:07.976Z,21.60
2022-08-19T13:12:36.477Z,21.60
2022-08-19T13:15:07.357Z,21.60
2022-08-19T13:17:42.027Z,21.60
2022-08-19T13:20:12.268Z,21.60
2022-08-19T13:22:40.568Z,21.50
2022-08-19T13:25:09.801Z,21.60
2022-08-19T13:27:38.549Z,21.50
2022-08-19T13:30:26.572Z,21.50
2022-08-19T13:33:15.451Z,21.50
2022-08-19T13:35:47.091Z,21.50
2022-08-19T13:38:17.362Z,21.50
2022-08-19T13:40:47.317Z,21.50
2022-08-19T13:43:23.061Z,21.50
2022-08-19T13:45:53.646Z,21.40
2022-08-19T13:48:24.483Z,21.50
2022-08-19T13:50:52.670Z,21.50
2022-08-19T13:53:21.086Z,21.50
2022-08-19T13:55:49.571Z,21.50
2022-08-19T13:58:17.786Z,21.50
2022-08-19T14:00:47.737Z,21.50
2022-08-19T14:03:16.310Z,21.50
2022-08-19T14:05:47.024Z,21.50
2022-08-19T14:08:15.088Z,21.50
2022-08-19T14:10:45.212Z,21.50
2022-08-19T14:13:16.722Z,21.50
2022-08-19T14:15:46.397Z,21.50
2022-08-19T14:18:14.329Z,21.50
2022-08-19T14:20:42.951Z,21.50
2022-08-19T14:23:13.650Z,21.50
2022-08-19T14:25:41.827Z,21.50
2022-08-19T14:28:10.005Z,21.50
2022-08-19T14:30:39.672Z,21.60
2022-08-19T14:33:09.352Z,21.60
2022-08-19T14:35:37.735Z,21.60
2022-08-19T14:38:06.474Z,21.70
2022-08-19T14:40:36.084Z,21.70
2022-08-19T14:43:06.520Z,21.70
2022-08-19T14:45:40.835Z,21.70
2022-08-19T14:48:12.432Z,21.80
2022-08-19T14:50:47.501Z,21.80
2022-08-19T14:53:15.483Z,21.80
2022-08-19T14:55:47.450Z,21.90
2022-08-19T14:58:29.012Z,21.80
2022-08-19T15:00:59.957Z,21.80
2022-08-19T15:03:28.136Z,21.80
2022-08-19T15:06:00.273Z,21.80
2022-08-19T15:08:29.293Z,21.80
2022-08-19T15:11:00.393Z,21.80
2022-08-19T15:13:29.936Z,21.70
2022-08-19T15:15:59.063Z,21.70
2022-08-19T15:18:27.337Z,21.60
2022-08-19T15:20:56.103Z,21.60
2022-08-19T15:23:24.267Z,21.60
2022-08-19T15:25:55.847Z,21.70
2022-08-19T15:28:27.654Z,21.60
2022-08-19T15:30:55.679Z,21.60
2022-08-19T15:33:23.669Z,21.70
2022-08-19T15:35:52.586Z,21.60
2022-08-19T15:38:22.319Z,21.60
2022-08-19T15:40:51.823Z,21.60
2022-08-19T15:43:22.238Z,21.60
2022-08-19T15:45:51.624Z,21.60
2022-08-19T15:48:19.619Z,21.60
2022-08-19T15:50:47.619Z,21.60
2022-08-19T15:53:15.652Z,21.60
2022-08-19T15:55:48.169Z,21.50
2022-08-19T15:58:34.036Z,21.50
2022-08-19T16:01:27.026Z,21.50
2022-08-19T16:04:15.967Z,21.40
2022-08-19T16:06:46.617Z,21.40
2022-08-19T16:09:15.403Z,21.40
2022-08-19T16:11:45.749Z,21.40
2022-08-19T16:14:14.938Z,21.40
2022-08-19T16:16:46.999Z,21.30
2022-08-19T16:19:17.664Z,21.30
2022-08-19T16:21:47.849Z,21.30
2022-08-19T16:24:18.291Z,21.30
2022-08-19T16:26:47.358Z,21.30
2022-08-19T16:29:27.715Z,21.20
2022-08-19T16:32:05.550Z,21.30
2022-08-19T16:34:34.696Z,21.20
2022-08-19T16:37:02.813Z,21.20
2022-08-19T16:39:30.989Z,21.20
2022-08-19T16:41:58.991Z,21.20
2022-08-19T16:44:27.446Z,21.20
2022-08-19T16:46:59.547Z,21.20
2022-08-19T16:49:53.682Z,21.20
2022-08-19T16:52:19.100Z,21.20
2022-08-19T16:54:47.427Z,21.20
2022-08-19T16:57:16.904Z,21.20
2022-08-19T16:59:48.955Z,21.20
2022-08-19T17:02:18.035Z,21.30
2022-08-19T17:04:57.778Z,21.20
2022-08-19T17:07:27.948Z,21.20
2022-08-19T17:09:57.025Z,21.20
2022-08-19T17:12:30.230Z,21.20
2022-08-19T17:15:00.625Z,21.20
2022-08-19T17:17:29.565Z,21.20
2022-08-19T17:19:59.318Z,21.20
2022-08-19T17:22:27.450Z,21.20
2022-08-19T17:24:56.263Z,21.20
2022-08-19T17:27:26.039Z,21.20
2022-08-19T17:29:54.023Z,21.20
2022-08-19T17:32:25.285Z,21.20
2022-08-19T17:34:54.051Z,21.10
2022-08-19T17:37:23.517Z,21.20
2022-08-19T17:39:51.805Z,21.20
2022-08-19T17:42:20.223Z,21.10
2022-08-19T17:44:50.858Z,21.10
2022-08-19T17:47:21.078Z,21.10
2022-08-19T17:49:49.056Z,21.10
2022-08-19T17:52:17.106Z,21.10
2022-08-19T17:54:46.736Z,21.10
2022-08-19T17:57:15.021Z,21.10
2022-08-19T17:59:42.961Z,21.10
2022-08-19T18:02:12.066Z,21.10
2022-08-19T18:04:41.936Z,21.10
2022-08-19T18:07:11.681Z,21.10
2022-08-19T18:09:42.890Z,21.10
2022-08-19T18:12:24.496Z,21.00
2022-08-19T18:14:52.479Z,21.00
2022-08-19T18:17:22.984Z,21.10
2022-08-19T18:19:51.134Z,21.00
2022-08-19T18:22:27.649Z,21.00
2022-08-19T18:24:56.890Z,21.00
2022-08-19T18:27:27.147Z,21.00
2022-08-19T18:29:59.446Z,20.90
2022-08-19T18:32:28.561Z,20.90
2022-08-19T18:34:56.512Z,20.90
2022-08-19T18:37:26.531Z,20.90
2022-08-19T18:40:08.485Z,20.90
2022-08-19T18:42:59.605Z,20.90
2022-08-19T18:45:45.122Z,20.80
2022-08-19T18:48:30.409Z,20.80
2022-08-19T18:51:00.272Z,20.80
2022-08-19T18:53:31.316Z,20.70
2022-08-19T18:55:59.691Z,20.70
2022-08-19T18:58:34.531Z,20.70
2022-08-19T19:01:11.304Z,20.60
2022-08-19T19:03:42.452Z,20.60
2022-08-19T19:06:10.414Z,20.60
2022-08-19T19:08:38.795Z,20.60
2022-08-19T19:11:07.002Z,20.60
2022-08-19T19:13:37.514Z,20.60
2022-08-19T19:16:05.962Z,20.50
2022-08-19T19:18:34.346Z,20.50
2022-08-19T19:21:02.298Z,20.50
2022-08-19T19:23:30.423Z,20.50
2022-08-19T19:25:58.436Z,20.50
2022-08-19T19:28:28.798Z,20.50
2022-08-19T19:30:59.013Z,20.50
2022-08-19T19:33:27.377Z,20.40
2022-08-19T19:35:55.657Z,20.40
2022-08-19T19:38:23.614Z,20.50
2022-08-19T19:40:51.597Z,20.40
2022-08-19T19:43:19.544Z,20.40
2022-08-19T19:45:48.946Z,20.40
2022-08-19T19:48:18.726Z,20.30
2022-08-19T19:50:53.891Z,20.30
2022-08-19T19:53:24.557Z,20.30
2022-08-19T19:55:58.506Z,20.30
2022-08-19T19:58:28.418Z,20.40
2022-08-19T20:00:57.986Z,20.40
2022-08-19T20:03:27.958Z,20.40
2022-08-19T20:05:59.199Z,20.40
2022-08-19T20:08:45.579Z,20.40
2022-08-19T20:11:16.827Z,20.40
2022-08-19T20:13:44.791Z,20.40
2022-08-19T20:16:13.348Z,20.40
2022-08-19T20:18:43.920Z,20.40
2022-08-19T20:21:12.292Z,20.40
2022-08-19T20:23:40.232Z,20.40
2022-08-19T20:26:09.706Z,20.40
2022-08-19T20:29:11.183Z,20.40
2022-08-19T20:31:59.361Z,20.30
2022-08-19T20:34:29.683Z,20.40
2022-08-19T20:36:57.648Z,20.40
2022-08-19T20:39:25.645Z,20.40
2022-08-19T20:41:56.222Z,20.40
2022-08-19T20:44:24.750Z,20.40
2022-08-19T20:46:55.304Z,20.40
2022-08-19T20:49:27.175Z,20.30
2022-08-19T20:51:57.874Z,20.40
2022-08-19T20:54:25.992Z,20.40
2022-08-19T20:56:54.592Z,20.40
2022-08-19T20:59:23.300Z,20.40
2022-08-19T21:01:52.195Z,20.40
2022-08-19T21:04:21.120Z,20.40
2022-08-19T21:06:49.499Z,20.40
2022-08-19T21:09:19.281Z,20.40
2022-08-19T21:11:47.727Z,20.30
2022-08-19T21:14:15.658Z,20.40
2022-08-19T21:16:43.619Z,20.40
2022-08-19T21:19:11.592Z,20.40
2022-08-19T21:21:39.663Z,20.30
2022-08-19T21:24:07.857Z,20.40
2022-08-19T21:26:37.173Z,20.40
2022-08-19T21:29:05.171Z,20.40
2022-08-19T21:31:33.111Z,20.40
2022-08-19T21:34:01.381Z,20.30
2022-08-19T21:36:29.331Z,20.30
2022-08-19T21:38:57.261Z,20.30
2022-08-19T21:41:25.158Z,20.30
2022-08-19T21:43:54.537Z,20.30
2022-08-19T21:46:22.551Z,20.30
2022-08-19T21:48:50.513Z,20.30
2022-08-19T21:51:18.493Z,20.30
2022-08-19T21:53:49.156Z,20.30
2022-08-19T21:56:21.256Z,20.30
2022-08-19T21:58:49.148Z,20.30
2022-08-19T22:01:18.512Z,20.30
2022-08-19T22:03:46.498Z,20.30
2022-08-19T22:06:14.468Z,20.30
2022-08-19T22:08:44.662Z,20.30
2022-08-19T22:11:13.035Z,20.30
2022-08-19T22:13:41.483Z,20.30
2022-08-19T22:16:10.672Z,20.30
2022-08-19T22:18:40.049Z,20.30
2022-08-19T22:21:11.688Z,20.30
2022-08-19T22:23:40.736Z,20.30
2022-08-19T22:26:09.217Z,20.30
2022-08-19T22:28:37.210Z,20.30
2022-08-19T22:31:05.761Z,20.30
2022-08-19T22:33:34.582Z,20.30
2022-08-19T22:36:04.445Z,20.30
2022-08-19T22:38:32.575Z,20.30
2022-08-19T22:41:00.496Z,20.30
2022-08-19T22:43:31.751Z,20.30
2022-08-19T22:46:00.846Z,20.30
2022-08-19T22:48:30.825Z,20.20
2022-08-19T22:51:16.522Z,20.20
2022-08-19T22:53:47.818Z,20.20
2022-08-19T22:56:19.207Z,20.20
2022-08-19T22:58:50.020Z,20.20
2022-08-19T23:01:27.440Z,20.20
2022-08-19T23:03:58.441Z,20.20
2022-08-19T23:06:33.071Z,20.20
2022-08-19T23:09:04.723Z,20.20
2022-08-19T23:11:35.489Z,20.20
2022-08-19T23:14:04.911Z,20.20
2022-08-19T23:16:35.517Z,20.20
2022-08-19T23:19:04.035Z,20.20
2022-08-19T23:21:31.994Z,20.20
2022-08-19T23:24:00.031Z,20.20
2022-08-19T23:26:32.729Z,20.20
2022-08-19T23:29:21.159Z,20.10
2022-08-19T23:31:49.555Z,20.10
2022-08-19T23:34:17.990Z,20.10
2022-08-19T23:36:46.282Z,20.10
2022-08-19T23:39:14.235Z,20.10
2022-08-19T23:41:43.549Z,20.10
2022-08-19T23:44:14.547Z,20.10
2022-08-19T23:46:54.510Z,20.10
2022-08-19T23:49:24.957Z,20.10
2022-08-19T23:51:53.252Z,20.10
2022-08-19T23:54:21.207Z,20.00
2022-08-19T23:56:50.606Z,20.00
2022-08-19T23:59:19.528Z,20.00
